createdAt,value
2022-08-21T00:02:02.694Z,99037.25
2022-08-21T00:04:30.180Z,99032.19
2022-08-21T00:06:57.783Z,99031.19
2022-08-21T00:09:24.438Z,99035.03
2022-08-21T00:11:51.009Z,99033.56
2022-08-21T00:14:17.825Z,99035.22
2022-08-21T00:16:44.427Z,99029.28
2022-08-21T00:19:11.030Z,99027.50
2022-08-21T00:21:37.776Z,99030.13
2022-08-21T00:24:05.354Z,99023.94
2022-08-21T00:26:32.123Z,99021.53
2022-08-21T00:28:59.008Z,99018.00
2022-08-21T00:31:26.015Z,99012.97
2022-08-21T00:33:52.651Z,99010.19
2022-08-21T00:36:26.042Z,99005.22
2022-08-21T00:38:52.773Z,99004.25
2022-08-21T00:41:37.816Z,99012.34
2022-08-21T00:44:10.760Z,99005.94
2022-08-21T00:46:38.568Z,99009.81
2022-08-21T00:49:06.410Z,99014.97
2022-08-21T00:51:39.696Z,99003.34
2022-08-21T00:54:12.980Z,99004.38
2022-08-21T00:56:47.690Z,99000.16
2022-08-21T00:59:15.173Z,98993.28
2022-08-21T01:01:41.744Z,99002.19
2022-08-21T01:04:08.402Z,99004.03
2022-08-21T01:06:36.123Z,99010.72
2022-08-21T01:09:03.797Z,99017.31
2022-08-21T01:11:30.713Z,99019.84
2022-08-21T01:13:57.471Z,99013.06
2022-08-21T01:16:24.354Z,99008.88
2022-08-21T01:18:51.967Z,99004.25
2022-08-21T01:21:22.805Z,99006.84
2022-08-21T01:23:55.005Z,99014.72
2022-08-21T01:26:34.104Z,99006.56
2022-08-21T01:29:14.129Z,99011.72
2022-08-21T01:31:41.041Z,99007.13
2022-08-21T01:34:08.521Z,99004.94
2022-08-21T01:36:35.729Z,98996.84
2022-08-21T01:39:05.014Z,99007.97
2022-08-21T01:41:31.901Z,98986.50
2022-08-21T01:43:58.509Z,98993.28
2022-08-21T01:46:25.101Z,98996.59
2022-08-21T01:48:51.751Z,98986.06
2022-08-21T01:51:18.395Z,98989.00
2022-08-21T01:53:45.086Z,98978.19
2022-08-21T01:56:14.499Z,98972.19
2022-08-21T01:58:43.431Z,98969.47
2022-08-21T02:01:10.590Z,98973.09
2022-08-21T02:03:37.843Z,98954.16
2022-08-21T02:06:06.091Z,98960.00
2022-08-21T02:08:32.806Z,98958.06
2022-08-21T02:10:59.831Z,98956.38
2022-08-21T02:13:27.163Z,98944.66
2022-08-21T02:15:53.737Z,98948.56
2022-08-21T02:18:20.389Z,98941.88
2022-08-21T02:20:48.752Z,98941.53
2022-08-21T02:23:26.658Z,98934.56
2022-08-21T02:25:58.742Z,98938.88
2022-08-21T02:28:25.872Z,98939.94
2022-08-21T02:30:54.769Z,98943.03
2022-08-21T02:33:21.971Z,98933.97
2022-08-21T02:35:49.151Z,98949.16
2022-08-21T02:38:20.073Z,98937.13
2022-08-21T02:40:51.081Z,98935.00
2022-08-21T02:43:20.038Z,98945.97
2022-08-21T02:45:47.529Z,98940.31
2022-08-21T02:48:17.218Z,98935.66
2022-08-21T02:50:49.756Z,98935.50
2022-08-21T02:53:17.648Z,98940.75
2022-08-21T02:55:49.764Z,98933.34
2022-08-21T02:58:19.134Z,98940.50
2022-08-21T03:00:47.046Z,98941.41
2022-08-21T03:03:15.679Z,98945.06
2022-08-21T03:05:42.721Z,98940.41
2022-08-21T03:08:12.024Z,98951.28
2022-08-21T03:10:41.981Z,98944.66
2022-08-21T03:13:09.225Z,98950.13
2022-08-21T03:15:35.857Z,98951.88
2022-08-21T03:18:05.577Z,98951.28
2022-08-21T03:20:33.468Z,98952.75
2022-08-21T03:23:01.328Z,98952.31
2022-08-21T03:25:39.687Z,98949.66
2022-08-21T03:28:14.001Z,98951.47
2022-08-21T03:30:45.838Z,98952.91
2022-08-21T03:33:13.222Z,98958.94
2022-08-21T03:35:43.715Z,98959.47
2022-08-21T03:38:10.639Z,98950.84
2022-08-21T03:40:37.322Z,98952.78
2022-08-21T03:43:03.932Z,98963.19
2022-08-21T03:45:30.612Z,98979.84
2022-08-21T03:47:59.593Z,98960.81
2022-08-21T03:50:28.217Z,98973.47
2022-08-21T03:52:55.021Z,98978.66
2022-08-21T03:55:22.163Z,98979.22
2022-08-21T03:57:48.745Z,98978.38
2022-08-21T04:00:16.666Z,98977.94
2022-08-21T04:02:44.603Z,98981.47
2022-08-21T04:05:15.119Z,98977.84
2022-08-21T04:07:41.768Z,98981.03
2022-08-21T04:10:08.957Z,98980.13
2022-08-21T04:12:35.647Z,98981.22
2022-08-21T04:15:02.922Z,98987.19
2022-08-21T04:17:29.586Z,98986.34
2022-08-21T04:19:56.229Z,98987.69
2022-08-21T04:22:23.282Z,98988.78
2022-08-21T04:24:50.805Z,98996.13
2022-08-21T04:27:17.465Z,98995.91
2022-08-21T04:29:44.018Z,98993.13
2022-08-21T04:32:10.664Z,98999.34
2022-08-21T04:34:37.402Z,99002.09
2022-08-21T04:37:04.702Z,99001.75
2022-08-21T04:39:31.290Z,98994.41
2022-08-21T04:41:57.979Z,99009.41
2022-08-21T04:44:24.634Z,99006.41
2022-08-21T04:46:51.215Z,99007.03
2022-08-21T04:49:18.338Z,99014.88
2022-08-21T04:51:45.244Z,99015.91
2022-08-21T04:54:16.627Z,99021.53
2022-08-21T04:56:51.010Z,99013.44
2022-08-21T04:59:25.186Z,99012.91
2022-08-21T05:01:52.671Z,99016.56
2022-08-21T05:04:23.825Z,99020.41
2022-08-21T05:06:51.644Z,99025.81
2022-08-21T05:09:19.591Z,99025.00
2022-08-21T05:11:46.207Z,99025.28
2022-08-21T05:14:13.523Z,99028.53
2022-08-21T05:16:40.246Z,99021.94
2022-08-21T05:19:08.014Z,99021.72
2022-08-21T05:21:36.630Z,99027.78
2022-08-21T05:24:03.570Z,99022.78
2022-08-21T05:26:30.811Z,99030.47
2022-08-21T05:28:57.931Z,99028.47
2022-08-21T05:31:25.030Z,99042.63
2022-08-21T05:33:52.119Z,99030.59
2022-08-21T05:36:19.381Z,99028.41
2022-08-21T05:38:46.628Z,99034.63
2022-08-21T05:41:13.623Z,99029.13
2022-08-21T05:43:40.295Z,99021.88
2022-08-21T05:46:07.981Z,99029.34
2022-08-21T05:48:36.013Z,99028.31
2022-08-21T05:51:08.106Z,99025.03
2022-08-21T05:53:35.046Z,99028.00
2022-08-21T05:56:04.493Z,99018.78
2022-08-21T05:58:32.269Z,99027.25
2022-08-21T06:00:59.694Z,99022.94
2022-08-21T06:03:29.026Z,99029.94
2022-08-21T06:05:56.613Z,99025.41
2022-08-21T06:08:24.067Z,99031.25
2022-08-21T06:10:51.784Z,99030.03
2022-08-21T06:13:20.145Z,99030.28
2022-08-21T06:15:46.986Z,99034.06
2022-08-21T06:18:13.614Z,99034.59
2022-08-21T06:20:40.775Z,99041.06
2022-08-21T06:23:07.430Z,99031.25
2022-08-21T06:25:34.158Z,99041.47
2022-08-21T06:28:10.931Z,99047.69
2022-08-21T06:30:39.485Z,99046.03
2022-08-21T06:33:07.264Z,99048.22
2022-08-21T06:35:35.041Z,99053.97
2022-08-21T06:38:02.013Z,99051.38
2022-08-21T06:40:30.365Z,99044.50
2022-08-21T06:42:59.713Z,99049.06
2022-08-21T06:45:28.372Z,99046.13
2022-08-21T06:47:59.190Z,99046.47
2022-08-21T06:50:25.808Z,99036.38
2022-08-21T06:53:03.983Z,99036.66
2022-08-21T06:55:30.708Z,99035.13
2022-08-21T06:57:57.377Z,99042.00
2022-08-21T07:00:24.209Z,99043.03
2022-08-21T07:02:50.842Z,99047.88
2022-08-21T07:05:18.804Z,99042.50
2022-08-21T07:07:46.633Z,99041.97
2022-08-21T07:10:22.619Z,99046.16
2022-08-21T07:12:51.095Z,99037.78
2022-08-21T07:15:26.806Z,99029.28
2022-08-21T07:17:53.466Z,99042.41
2022-08-21T07:20:20.046Z,99043.25
2022-08-21T07:22:46.702Z,99051.59
2022-08-21T07:25:13.354Z,99049.06
2022-08-21T07:27:39.994Z,99045.94
2022-08-21T07:30:07.522Z,99048.25
2022-08-21T07:32:34.167Z,99036.25
2022-08-21T07:35:00.794Z,99031.69
2022-08-21T07:37:27.368Z,99032.50
2022-08-21T07:39:54.044Z,99041.31
2022-08-21T07:42:20.645Z,99043.72
2022-08-21T07:44:47.328Z,99039.84
2022-08-21T07:47:16.178Z,99041.16
2022-08-21T07:50:02.874Z,99029.34
2022-08-21T07:52:32.070Z,99039.13
2022-08-21T07:55:04.123Z,99045.50
2022-08-21T07:57:32.850Z,99033.91
2022-08-21T07:59:59.435Z,99037.03
2022-08-21T08:02:28.134Z,99037.31
2022-08-21T08:04:54.910Z,99033.16
2022-08-21T08:07:21.618Z,99039.31
2022-08-21T08:09:48.345Z,99026.97
2022-08-21T08:12:14.998Z,99036.03
2022-08-21T08:14:41.562Z,99026.34
2022-08-21T08:17:08.146Z,99032.97
2022-08-21T08:19:34.770Z,99032.91
2022-08-21T08:22:01.375Z,99028.59
2022-08-21T08:24:28.210Z,99028.03
2022-08-21T08:26:55.966Z,99024.81
2022-08-21T08:29:23.082Z,99020.88
2022-08-21T08:31:49.712Z,99024.31
2022-08-21T08:34:23.431Z,99020.84
2022-08-21T08:36:52.524Z,99024.06
2022-08-21T08:39:26.385Z,99019.00
2022-08-21T08:42:32.921Z,99021.59
2022-08-21T08:45:08.858Z,99021.13
2022-08-21T08:47:45.962Z,99031.75
2022-08-21T08:50:27.106Z,99018.47
2022-08-21T08:52:58.701Z,99017.19
2022-08-21T08:55:33.366Z,99020.06
2022-08-21T08:58:00.031Z,99035.88
2022-08-21T09:00:26.686Z,99025.34
2022-08-21T09:02:59.644Z,99018.34
2022-08-21T09:05:42.199Z,99029.03
2022-08-21T09:08:30.050Z,99018.34
2022-08-21T09:11:22.934Z,99017.38
2022-08-21T09:14:18.201Z,99011.75
2022-08-21T09:17:14.762Z,99024.09
2022-08-21T09:20:20.100Z,99012.78
2022-08-21T09:22:59.657Z,99010.00
2022-08-21T09:25:34.398Z,99004.13
2022-08-21T09:28:01.066Z,99004.75
2022-08-21T09:30:31.679Z,99001.19
2022-08-21T09:32:58.462Z,99008.78
2022-08-21T09:35:26.312Z,99001.53
2022-08-21T09:37:52.915Z,98995.13
2022-08-21T09:40:45.826Z,98994.22
2022-08-21T09:43:12.356Z,98999.97
2022-08-21T09:45:40.836Z,98984.69
2022-08-21T09:48:20.150Z,98983.19
2022-08-21T09:50:48.511Z,98980.22
2022-08-21T09:53:35.037Z,98980.06
2022-08-21T09:56:34.474Z,98984.06
2022-08-21T09:59:01.367Z,98976.19
2022-08-21T10:01:28.050Z,98974.50
2022-08-21T10:04:05.915Z,98976.66
2022-08-21T10:06:32.560Z,98975.31
2022-08-21T10:09:18.790Z,98976.06
2022-08-21T10:11:55.087Z,98974.97
2022-08-21T10:14:27.342Z,98973.47
2022-08-21T10:17:02.755Z,98972.16
2022-08-21T10:20:09.222Z,98970.03
2022-08-21T10:22:51.572Z,98975.59
2022-08-21T10:28:25.598Z,98983.50
2022-08-21T10:31:07.547Z,98987.63
2022-08-21T10:33:45.833Z,98974.16
2022-08-21T10:36:18.074Z,98982.53
2022-08-21T10:39:26.360Z,98980.41
2022-08-21T10:42:02.278Z,98980.22
2022-08-21T10:44:40.116Z,98982.31
2022-08-21T10:47:23.537Z,98979.44
2022-08-21T10:49:59.124Z,98985.03
2022-08-21T10:52:48.084Z,98988.13
2022-08-21T10:55:21.482Z,98985.22
2022-08-21T10:57:59.086Z,98996.56
2022-08-21T11:00:35.055Z,98996.88
2022-08-21T11:03:27.280Z,98991.19
2022-08-21T11:05:57.019Z,98986.63
2022-08-21T11:08:39.312Z,98988.47
2022-08-21T11:11:15.736Z,98980.22
2022-08-21T11:13:52.304Z,98982.47
2022-08-21T11:16:27.602Z,98988.28
2022-08-21T11:19:10.478Z,98984.47
2022-08-21T11:21:48.330Z,98986.56
2022-08-21T11:24:41.392Z,98989.03
2022-08-21T11:27:15.940Z,98993.03
2022-08-21T11:29:45.402Z,98997.16
2022-08-21T11:32:39.542Z,99013.88
2022-08-21T11:35:29.210Z,99003.56
2022-08-21T11:37:55.770Z,99012.88
2022-08-21T11:40:49.489Z,99000.47
2022-08-21T11:43:25.074Z,99005.56
2022-08-21T11:45:53.594Z,98995.72
2022-08-21T11:48:38.149Z,98997.34
2022-08-21T11:51:10.526Z,98988.66
2022-08-21T11:53:43.868Z,98987.34
2022-08-21T11:56:15.771Z,98986.34
2022-08-21T11:58:46.590Z,98976.91
2022-08-21T12:01:20.250Z,98983.84
2022-08-21T12:04:31.933Z,98986.69
2022-08-21T12:07:12.342Z,98990.56
2022-08-21T12:09:39.498Z,98989.41
2022-08-21T12:12:22.770Z,99002.59
2022-08-21T12:14:52.006Z,98997.19
2022-08-21T12:17:37.557Z,98999.91
2022-08-21T12:20:22.282Z,99006.66
2022-08-21T12:22:55.774Z,99009.88
2022-08-21T12:25:23.553Z,99005.53
2022-08-21T12:28:04.239Z,98995.06
2022-08-21T12:30:30.819Z,98999.13
2022-08-21T12:33:07.066Z,98988.28
2022-08-21T12:35:38.958Z,98991.53
2022-08-21T12:38:19.146Z,98984.63
2022-08-21T12:40:56.065Z,98999.25
2022-08-21T12:43:32.650Z,98986.94
2022-08-21T12:46:01.538Z,99000.34
2022-08-21T12:48:34.675Z,98988.88
2022-08-21T12:51:23.967Z,98993.03
2022-08-21T12:53:59.188Z,98997.31
2022-08-21T12:56:30.567Z,98992.66
2022-08-21T12:59:04.726Z,98996.59
2022-08-21T13:01:39.359Z,99007.88
2022-08-21T13:04:11.169Z,98997.28
2022-08-21T13:06:41.073Z,99003.75
2022-08-21T13:09:11.661Z,99014.16
2022-08-21T13:11:40.846Z,99014.94
2022-08-21T13:14:24.729Z,99012.19
2022-08-21T13:16:55.932Z,99016.78
2022-08-21T13:19:24.192Z,99020.03
2022-08-21T13:21:53.302Z,99019.72
2022-08-21T13:24:41.865Z,99019.22
2022-08-21T13:27:27.983Z,99004.53
2022-08-21T13:30:18.591Z,99016.06
2022-08-21T13:32:47.628Z,99007.91
2022-08-21T13:35:21.188Z,99014.44
2022-08-21T13:37:49.628Z,99005.84
2022-08-21T13:40:20.245Z,99016.03
2022-08-21T13:42:49.293Z,99003.91
2022-08-21T13:45:25.077Z,99021.69
2022-08-21T13:47:52.031Z,99016.44
2022-08-21T13:50:19.724Z,99022.28
2022-08-21T13:53:07.302Z,99022.25
2022-08-21T13:55:52.150Z,99010.47
2022-08-21T13:58:34.889Z,99025.50
2022-08-21T14:01:04.918Z,99018.84
2022-08-21T14:03:38.806Z,99010.38
2022-08-21T14:06:23.609Z,99018.38
2022-08-21T14:08:58.232Z,99014.63
2022-08-21T14:11:26.762Z,99022.28
2022-08-21T14:14:06.349Z,99010.81
2022-08-21T14:16:48.064Z,99006.59
2022-08-21T14:19:45.173Z,99011.41
2022-08-21T14:22:36.899Z,99006.50
2022-08-21T14:25:12.648Z,99007.47
2022-08-21T14:28:00.040Z,99005.41
2022-08-21T14:30:31.462Z,99003.06
2022-08-21T14:32:58.949Z,99000.56
2022-08-21T14:35:26.006Z,98996.25
2022-08-21T14:37:53.255Z,98994.53
2022-08-21T14:40:21.729Z,98997.34
2022-08-21T14:42:50.493Z,98984.44
2022-08-21T14:45:27.040Z,98995.97
2022-08-21T14:47:55.649Z,98991.88
2022-08-21T14:50:22.370Z,98990.19
2022-08-21T14:52:49.067Z,98992.28
2022-08-21T14:55:17.872Z,98994.09
2022-08-21T14:57:47.197Z,98995.16
2022-08-21T15:00:17.900Z,98990.81
2022-08-21T15:02:44.990Z,98987.44
2022-08-21T15:05:11.763Z,98985.50
2022-08-21T15:07:39.109Z,98979.88
2022-08-21T15:10:09.860Z,98992.09
2022-08-21T15:12:37.003Z,98986.16
2022-08-21T15:15:06.105Z,98995.63
2022-08-21T15:17:33.116Z,99003.25
2022-08-21T15:19:59.712Z,98990.75
2022-08-21T15:22:28.614Z,98995.59
2022-08-21T15:24:55.289Z,99001.47
2022-08-21T15:27:21.911Z,98988.31
2022-08-21T15:29:48.543Z,98986.63
2022-08-21T15:32:27.281Z,98993.69
2022-08-21T15:34:55.064Z,98998.91
2022-08-21T15:37:22.824Z,98998.66
2022-08-21T15:39:54.286Z,98993.66
2022-08-21T15:42:21.863Z,98994.19
2022-08-21T15:44:48.805Z,98993.84
2022-08-21T15:47:18.521Z,98989.75
2022-08-21T15:49:46.386Z,98990.84
2022-08-21T15:52:17.674Z,98994.88
2022-08-21T15:54:44.383Z,98997.19
2022-08-21T15:57:13.589Z,98994.75
2022-08-21T15:59:48.439Z,98994.56
2022-08-21T16:02:27.564Z,98986.69
2022-08-21T16:04:54.503Z,98987.81
2022-08-21T16:07:21.127Z,98994.47
2022-08-21T16:09:47.873Z,98991.03
2022-08-21T16:12:20.971Z,98994.94
2022-08-21T16:14:47.800Z,98989.91
2022-08-21T16:17:14.423Z,98989.47
2022-08-21T16:19:41.123Z,98983.84
2022-08-21T16:22:07.843Z,98977.06
2022-08-21T16:24:34.748Z,98987.63
2022-08-21T16:27:03.403Z,98989.03
2022-08-21T16:29:37.025Z,98987.06
2022-08-21T16:32:04.988Z,98990.69
2022-08-21T16:34:31.873Z,98982.22
2022-08-21T16:36:58.488Z,98984.31
2022-08-21T16:39:25.299Z,98986.19
2022-08-21T16:41:52.004Z,98982.91
2022-08-21T16:44:22.089Z,98980.09
2022-08-21T16:46:49.871Z,98986.66
2022-08-21T16:49:16.618Z,98981.22
2022-08-21T16:51:43.613Z,98972.53
2022-08-21T16:54:12.202Z,98983.22
2022-08-21T16:56:41.372Z,98972.47
2022-08-21T16:59:11.177Z,98978.44
2022-08-21T17:01:37.968Z,98981.97
2022-08-21T17:04:05.077Z,98971.44
2022-08-21T17:06:32.812Z,98976.34
2022-08-21T17:08:59.518Z,98973.03
2022-08-21T17:11:37.020Z,98971.41
2022-08-21T17:14:08.876Z,98978.25
2022-08-21T17:16:35.909Z,98971.34
2022-08-21T17:19:02.489Z,98970.03
2022-08-21T17:21:29.117Z,98972.59
2022-08-21T17:23:55.714Z,98978.84
2022-08-21T17:26:22.962Z,98978.59
2022-08-21T17:28:54.221Z,98973.47
2022-08-21T17:31:21.437Z,98971.81
2022-08-21T17:33:51.541Z,98971.69
2022-08-21T17:36:20.417Z,98966.56
2022-08-21T17:38:48.215Z,98971.56
2022-08-21T17:41:16.193Z,98979.03
2022-08-21T17:43:43.465Z,98972.84
2022-08-21T17:46:12.847Z,98974.31
2022-08-21T17:48:39.481Z,98978.22
2022-08-21T17:51:09.473Z,98972.25
2022-08-21T17:53:38.539Z,98978.44
2022-08-21T17:56:06.333Z,98975.88
2022-08-21T17:58:33.654Z,98978.44
2022-08-21T18:01:06.060Z,98981.25
2022-08-21T18:03:38.267Z,98984.38
2022-08-21T18:06:05.261Z,98977.03
2022-08-21T18:08:32.675Z,98977.09
2022-08-21T18:10:59.888Z,98965.16
2022-08-21T18:13:30.218Z,98986.06
2022-08-21T18:15:58.405Z,98984.91
2022-08-21T18:18:26.033Z,98986.94
2022-08-21T18:20:53.603Z,98980.41
2022-08-21T18:23:20.201Z,98988.44
2022-08-21T18:26:07.279Z,98981.44
2022-08-21T18:28:35.689Z,98991.50
2022-08-21T18:31:02.432Z,98989.81
2022-08-21T18:33:29.028Z,98988.72
2022-08-21T18:35:55.725Z,98995.44
2022-08-21T18:38:24.766Z,98994.38
2022-08-21T18:40:55.934Z,98990.13
2022-08-21T18:43:23.738Z,98993.06
2022-08-21T18:45:50.314Z,99005.09
2022-08-21T18:48:17.890Z,99001.97
2022-08-21T18:50:47.957Z,99003.84
2022-08-21T18:53:24.213Z,99007.19
2022-08-21T18:56:05.584Z,98999.72
2022-08-21T18:58:33.463Z,99002.63
2022-08-21T19:01:00.288Z,98989.91
2022-08-21T19:03:26.945Z,99001.16
2022-08-21T19:05:54.066Z,99006.50
2022-08-21T19:08:23.618Z,99007.75
2022-08-21T19:10:52.090Z,98999.03
2022-08-21T19:13:21.015Z,99001.44
2022-08-21T19:15:53.046Z,99000.47
2022-08-21T19:18:28.293Z,99004.06
2022-08-21T19:20:55.981Z,99005.69
2022-08-21T19:23:29.446Z,98998.50
2022-08-21T19:26:00.510Z,99002.91
2022-08-21T19:28:47.449Z,99012.28
2022-08-21T19:31:23.631Z,99008.25
2022-08-21T19:34:01.563Z,99012.28
2022-08-21T19:36:29.179Z,99006.34
2022-08-21T19:38:56.057Z,99015.91
2022-08-21T19:41:26.002Z,99013.91
2022-08-21T19:43:55.818Z,99004.50
2022-08-21T19:46:26.358Z,99010.47
2022-08-21T19:48:54.074Z,99013.69
2022-08-21T19:51:21.123Z,99009.75
2022-08-21T19:53:51.502Z,99019.34
2022-08-21T19:56:27.759Z,99016.72
2022-08-21T19:58:55.197Z,99012.31
2022-08-21T20:01:23.876Z,99022.75
2022-08-21T20:03:54.029Z,99018.25
2022-08-21T20:06:22.108Z,99002.44
2022-08-21T20:08:51.701Z,99007.94
2022-08-21T20:11:25.172Z,99000.66
2022-08-21T20:13:51.818Z,99006.81
2022-08-21T20:16:21.526Z,99001.16
2022-08-21T20:18:49.006Z,99003.13
2022-08-21T20:21:17.680Z,99005.56
2022-08-21T20:23:48.841Z,99011.03
2022-08-21T20:26:16.842Z,99021.03
2022-08-21T20:28:44.228Z,99014.22
2022-08-21T20:31:10.943Z,99013.09
2022-08-21T20:33:42.073Z,99003.38
2022-08-21T20:36:08.790Z,99011.38
2022-08-21T20:38:35.772Z,99013.63
2022-08-21T20:41:03.114Z,99000.03
2022-08-21T20:43:31.650Z,99005.00
2022-08-21T20:46:00.695Z,99007.03
2022-08-21T20:51:53.002Z,99007.56
2022-08-21T21:06:41.095Z,98996.34
2022-08-21T21:09:14.848Z,99004.19
2022-08-21T21:11:49.862Z,99007.78
2022-08-21T21:14:23.526Z,99001.28
2022-08-21T21:16:53.959Z,99005.91
2022-08-21T21:19:46.952Z,98997.81
2022-08-21T21:22:32.865Z,98994.84
2022-08-21T21:25:06.449Z,98995.97
2022-08-21T21:27:38.031Z,98994.03
2022-08-21T21:30:14.406Z,98994.31
2022-08-21T21:32:41.474Z,98995.19
2022-08-21T21:35:09.203Z,99006.56
2022-08-21T21:37:39.693Z,99002.75
2022-08-21T21:40:43.762Z,99000.63
2022-08-21T21:43:56.623Z,98999.00
2022-08-21T21:46:46.112Z,99007.09
2022-08-21T21:49:39.983Z,99000.63
2022-08-21T21:52:25.646Z,99000.06
2022-08-21T21:55:18.340Z,99002.50
2022-08-21T21:57:56.215Z,99004.41
2022-08-21T22:00:26.754Z,99003.88
2022-08-21T22:03:01.133Z,98998.47
2022-08-21T22:06:01.519Z,99002.78
2022-08-21T22:08:40.133Z,99000.88
2022-08-21T22:11:29.500Z,99002.78
2022-08-21T22:14:14.173Z,99002.25
2022-08-21T22:16:41.571Z,98998.16
2022-08-21T22:19:09.070Z,98995.75
2022-08-21T22:21:45.330Z,98993.59
2022-08-21T22:24:19.158Z,98999.81
2022-08-21T22:26:50.146Z,98996.03
2022-08-21T22:29:20.518Z,98998.19
2022-08-21T22:32:08.463Z,99001.44
2022-08-21T22:34:36.716Z,99006.28
2022-08-21T22:37:11.243Z,99000.63
2022-08-21T22:39:41.953Z,98992.78
2022-08-21T22:42:11.355Z,98999.00
2022-08-21T22:45:12.419Z,98993.31
2022-08-21T22:47:44.798Z,98989.00
2022-08-21T22:50:27.563Z,98989.53
2022-08-21T22:52:58.216Z,98986.28
2022-08-21T22:55:37.954Z,98995.72
2022-08-21T22:58:19.234Z,98993.56
2022-08-21T23:00:57.116Z,98990.59
2022-08-21T23:03:39.035Z,98990.88
2022-08-21T23:06:22.619Z,98980.31
2022-08-21T23:09:20.268Z,98979.78
2022-08-21T23:11:50.708Z,98987.91
2022-08-21T23:14:18.518Z,98983.59
2022-08-21T23:43:15.152Z,98967.09
2022-08-21T23:46:16.437Z,98967.38
